AirNav   SIMCOM
 
 998 users online  

PA53 Cosklos Elkview Airport
Carbondale, Pennsylvania, USA

GOING TO CARBONDALE?


FAA INFORMATION EFFECTIVE 14 SEPTEMBER 2017

Location

FAA Identifier: PA53
Lat/Long: 41-37-37.2940N / 075-31-41.6650W
41-37.621567N / 075-31.694417W
41.6270261 / -75.5282403
(estimated)
Elevation: 1710 ft. / 521 m (estimated)
Variation: 12W (1985)
From city: 3 miles NW of CARBONDALE, PA
Time zone: UTC -4 (UTC -5 during Standard Time)
Zip code: 18407

Airport Operations

Airport use: Private use. Permission required prior to landing
Activation date: 09/1962
Control tower: no
ARTCC: NEW YORK CENTER
FSS: WILLIAMSPORT FLIGHT SERVICE STATION
Attendance: UNATNDD
Wind indicator: yes
Segmented circle: no

Airport Communications

WX ASOS at AVP (19 nm SW): PHONE 570-655-0748

Nearby radio navigation aids

VOR radial/distance  VOR name  Freq  Var
LVZr029/22.5WILKES-BARRE VORTAC111.6010W
HNKr211/27.8HANCOCK VOR/DME116.8011W

Airport Services

Airframe service: NONE
Powerplant service: NONE

Runway Information

Runway N/S

Dimensions: 1600 x 200 ft. / 488 x 61 m
Surface: turf
RUNWAY N  RUNWAY S
Traffic pattern: leftleft
Obstructions: plinetrees

Airport Ownership and Management from official FAA records

Ownership: Privately-owned
Owner: GAIL COSKLO
RD 1
CARBONDALE, PA 18407
Phone 717-282-0319
Manager: SCOTT COSKLO
RD 1
CARBONDALE, PA 18407
Phone 717-282-0319

Airport Operational Statistics

Aircraft based on the field: 1
Single engine airplanes: 1
    

Instrument Procedures

There are no published instrument procedures at PA53.

Some nearby airports with instrument procedures:

9N3 - Seamans Field Airport (10 nm W)
N30 - Cherry Ridge Airport (14 nm SE)
70N - Spring Hill Airport (18 nm S)
KAVP - Wilkes-Barre/Scranton International Airport (19 nm SW)
KWBW - Wilkes-Barre Wyoming Valley Airport (25 nm SW)
 
Loc | Ops | Rwys | IFR | FBO | Links
Com | Nav | Svcs | Stats | Notes


 
Area around PA53 (Cosklos Elkview Airport)
 
Road maps at: MapQuest Bing Google
 
Aerial photo
No photo
 
Sectional chart

 
Airport distance calculator
Flying to Cosklos Elkview Airport? Find the distance to fly.

From to PA53

Sunrise and sunset
Times for 25-Sep-2017
 Local
(UTC-4)
 Zulu
(UTC)
Morning civil twilight06:2610:26
Sunrise06:5410:54
Sunset18:5422:54
Evening civil twilight19:2223:22

Current date and time
Zulu (UTC)  25-Sep-2017 23:44:24
Local (UTC-4)  25-Sep-2017 19:44:24
 
METAR
KAVP 
20nm SW 
252254Z 10003KT 10SM CLR 28/19 A3004 RMK AO2 SLP162 T02830189
KMPO 
30nm S 
252253Z AUTO 00000KT 10SM CLR 23/20 A3010 RMK AO2 SLP185 T02330200
KMSV 
34nm E 
252256Z AUTO 16005KT 10SM CLR 26/20 A3009 RMK AO2 SLP181 T02560200
TAF
KAVP 
20nm SW 
251732Z 2518/2618 VRB03KT P6SM FEW250 FM260800 13003KT 4SM BR SCT060 FM261300 00000KT P6SM SCT150
NOTAMs
Click for the latest NOTAMs
NOTAMs are issued by the DoD/FAA and will open in a separate window not controlled by AirNav.

 

 
 

Would you like to see your business listed on this page?

 If your business provides an interesting product or service to pilots, flight crews, aircraft, or users of the Cosklos Elkview Airport, you should consider listing it here.  To start the listing process, click on the button below
 
Add a business
 

Other Pages about Cosklos Elkview Airport

Update a link
 
Copyright © AirNav, LLC. All rights reserved. Privacy Policy  Contact